Terminal Aerodrome Forecast
Issued by NWS Rapid City, SD

Home | Current Version | Previous Version | Graphics & Text | Print | Product List | Glossary On
Versions: 1 2 3 4 5 6 7 8 9 10 11 12 13 14 15
000
FTUS43 KUNR 190013 RRA
TAFRAP
TAF
KRAP 190013Z 1900/1924 16010KT P6SM SCT200
     FM190500 18008KT P6SM BKN200 WS020/20050KT
     FM191300 22010KT P6SM BKN200
     FM191800 26015G25KT P6SM BKN120=

USA.gov is the U.S. government's official web portal to all federal, state and local government web resources and services.